Time;durP1;ratioP1;P1;durP2;ratioP2;P2;SDS_P1;SDS_P2;PMS_P1;PMS_P2;Temp;Humidity;BMP_temperature;BMP_pressure;BME280_temperature;BME280_humidity;BME280_pressure;Samples;Min_cycle;Max_cycle;Signal;HPM_P1;HPM_P2
2021/12/22 00:00:18;;;;;;;17.13;10.40;;;1.50;51.90;;;;;;5065769;28;20450;-87
2021/12/22 00:02:48;;;;;;;22.10;10.50;;;1.40;52.40;;;;;;5081702;28;20884;-87
2021/12/22 00:05:19;;;;;;;20.10;10.47;;;1.50;52.60;;;;;;5080419;28;20819;-87
2021/12/22 00:07:46;;;;;;;16.87;10.03;;;1.50;52.80;;;;;;5068269;28;20453;-89
2021/12/22 00:10:14;;;;;;;17.00;9.00;;;1.60;52.70;;;;;;5061350;28;20445;-88
2021/12/22 00:12:41;;;;;;;18.50;11.23;;;1.70;52.50;;;;;;5077909;28;20494;-86
2021/12/22 00:15:09;;;;;;;27.00;9.70;;;1.80;52.10;;;;;;5094789;27;20451;-87
2021/12/22 00:17:36;;;;;;;108.97;9.60;;;1.80;52.10;;;;;;5061999;28;20468;-88
2021/12/22 00:20:05;;;;;;;15.60;8.77;;;1.80;52.40;;;;;;5067295;28;20469;-88
2021/12/22 00:22:34;;;;;;;20.90;11.53;;;1.80;52.50;;;;;;5058400;28;21005;-87
2021/12/22 00:25:00;;;;;;;19.50;10.10;;;1.70;52.20;;;;;;5069013;28;20447;-86
2021/12/22 00:27:27;;;;;;;16.57;9.60;;;1.60;52.20;;;;;;5062335;28;20458;-89
2021/12/22 00:29:54;;;;;;;18.20;10.70;;;1.60;52.00;;;;;;5083320;28;20453;-88
2021/12/22 00:32:24;;;;;;;11.40;8.43;;;1.50;51.80;;;;;;5068289;28;20853;-87
2021/12/22 00:34:54;;;;;;;17.40;8.70;;;1.50;51.90;;;;;;5057904;28;20452;-88
2021/12/22 00:37:33;;;;;;;15.57;9.37;;;1.50;51.80;;;;;;5072286;28;20458;-87
2021/12/22 00:40:01;;;;;;;7.90;7.00;;;1.60;51.50;;;;;;5077356;28;20835;-88
2021/12/22 00:42:28;;;;;;;12.50;8.63;;;1.50;50.40;;;;;;5091427;28;20573;-87
2021/12/22 00:44:55;;;;;;;11.20;7.20;;;1.00;50.50;;;;;;5081064;28;20455;-87
2021/12/22 00:47:24;;;;;;;20.07;9.40;;;0.60;51.00;;;;;;5093148;28;20463;-86
2021/12/22 00:49:51;;;;;;;19.70;7.80;;;0.40;52.50;;;;;;5091171;28;20458;-88
2021/12/22 00:52:18;;;;;;;10.10;6.67;;;0.60;52.30;;;;;;5067594;28;20486;-87
2021/12/22 00:54:47;;;;;;;10.67;5.17;;;0.80;51.70;;;;;;5065111;28;20454;-87
2021/12/22 00:57:16;;;;;;;19.53;7.00;;;0.90;51.20;;;;;;5074334;28;20497;-87
2021/12/22 00:59:43;;;;;;;12.30;7.37;;;1.00;50.70;;;;;;5090475;28;20547;-87
2021/12/22 01:02:12;;;;;;;15.73;10.07;;;1.10;50.80;;;;;;5078100;28;20887;-87
2021/12/22 01:04:39;;;;;;;16.90;9.83;;;1.20;50.00;;;;;;5077732;28;20981;-88
2021/12/22 01:07:07;;;;;;;22.40;8.37;;;1.20;50.20;;;;;;5087077;28;20437;-87
2021/12/22 01:09:35;;;;;;;18.60;8.10;;;1.30;50.50;;;;;;5092362;28;20468;-87
2021/12/22 01:12:06;;;;;;;18.50;9.13;;;1.30;50.70;;;;;;5083916;28;20788;-87
2021/12/22 01:14:34;;;;;;;16.13;8.27;;;1.40;50.70;;;;;;5075863;28;20462;-88
2021/12/22 01:17:03;;;;;;;15.67;7.73;;;1.40;50.40;;;;;;5092862;28;20756;-88
2021/12/22 01:19:37;;;;;;;21.13;7.23;;;1.40;50.00;;;;;;5073800;28;20459;-87
2021/12/22 01:22:18;;;;;;;14.93;7.97;;;1.50;49.90;;;;;;5079937;28;20495;-86
2021/12/22 01:24:48;;;;;;;19.83;9.20;;;1.50;49.70;;;;;;5095482;28;21272;-87
2021/12/22 01:27:22;;;;;;;19.03;9.93;;;1.50;50.20;;;;;;5074521;28;20481;-84
2021/12/22 01:29:51;;;;;;;16.90;8.30;;;1.40;50.70;;;;;;5072654;28;20457;-90
2021/12/22 01:32:18;;;;;;;14.00;8.00;;;1.50;50.70;;;;;;5060494;28;21012;-87
2021/12/22 01:34:46;;;;;;;16.83;8.70;;;1.40;51.60;;;;;;5073194;28;20455;-86
2021/12/22 01:37:13;;;;;;;15.90;8.87;;;1.10;51.90;;;;;;5075743;28;20926;-87
2021/12/22 01:39:40;;;;;;;14.50;7.87;;;0.90;52.80;;;;;;5090686;28;20458;-84
2021/12/22 01:42:07;;;;;;;18.53;10.63;;;0.90;52.50;;;;;;5076198;28;20459;-87
2021/12/22 01:44:49;;;;;;;18.20;10.20;;;0.80;53.10;;;;;;5063671;28;20527;-88
2021/12/22 01:50:01;;;;;;;15.77;7.70;;;1.00;52.60;;;;;;5074038;28;20958;-87
2021/12/22 01:52:28;;;;;;;30.23;9.20;;;1.10;52.50;;;;;;5058857;28;20843;-87
2021/12/22 01:55:07;;;;;;;19.40;9.13;;;1.20;52.20;;;;;;5043637;28;20792;-87
2021/12/22 01:57:44;;;;;;;17.43;9.27;;;1.30;52.10;;;;;;5056492;28;20459;-87
2021/12/22 02:00:15;;;;;;;29.30;9.73;;;1.30;51.80;;;;;;5047766;28;20449;-87
2021/12/22 02:02:42;;;;;;;14.47;7.67;;;1.30;51.70;;;;;;5080986;28;20474;-87
2021/12/22 02:05:09;;;;;;;28.10;7.80;;;1.20;51.60;;;;;;5092664;28;20459;-87
2021/12/22 02:07:36;;;;;;;14.53;7.57;;;1.30;51.30;;;;;;5072219;28;20832;-88
2021/12/22 02:10:18;;;;;;;23.70;7.63;;;1.20;50.90;;;;;;5066781;28;20841;-87
2021/12/22 02:12:49;;;;;;;19.30;7.67;;;1.20;50.60;;;;;;5062173;28;20478;-88
2021/12/22 02:15:18;;;;;;;17.13;7.47;;;1.30;50.30;;;;;;5075193;28;20842;-87
2021/12/22 02:17:45;;;;;;;13.87;7.27;;;1.30;49.80;;;;;;5082134;28;20556;-87
2021/12/22 02:20:13;;;;;;;11.87;8.20;;;1.20;49.20;;;;;;5075038;28;20556;-87
2021/12/22 02:22:42;;;;;;;10.20;7.87;;;0.90;49.50;;;;;;5073184;28;20482;-87
2021/12/22 02:25:15;;;;;;;12.23;6.43;;;1.00;50.40;;;;;;5064725;28;20455;-87
2021/12/22 02:27:43;;;;;;;22.43;8.27;;;1.00;51.10;;;;;;5073226;28;20450;-87
2021/12/22 02:30:17;;;;;;;13.93;6.00;;;1.00;50.50;;;;;;5071965;28;20537;-87
2021/12/22 02:35:40;;;;;;;12.37;7.27;;;0.00;50.70;;;;;;5080078;28;20455;-87
2021/12/22 02:38:14;;;;;;;11.67;7.80;;;-0.40;52.50;;;;;;5044558;28;20517;-88
2021/12/22 02:40:41;;;;;;;10.10;5.30;;;-0.10;53.40;;;;;;5072566;28;20446;-84
2021/12/22 02:43:08;;;;;;;14.37;8.70;;;-0.20;54.00;;;;;;5074229;28;20481;-87
2021/12/22 02:45:36;;;;;;;17.60;6.73;;;-0.50;55.40;;;;;;5075769;28;21062;-87
2021/12/22 02:48:05;;;;;;;15.13;8.17;;;-0.70;56.30;;;;;;5057300;28;20530;-87
2021/12/22 02:50:36;;;;;;;17.60;8.10;;;-0.90;56.80;;;;;;5090846;28;20486;-87
2021/12/22 02:53:07;;;;;;;17.70;7.77;;;-0.90;57.00;;;;;;5075625;28;20545;-87
2021/12/22 02:55:45;;;;;;;20.90;7.60;;;-0.90;57.10;;;;;;5074542;28;20539;-87
2021/12/22 02:58:20;;;;;;;16.07;7.67;;;-0.60;56.70;;;;;;5081156;28;20465;-87
2021/12/22 03:01:01;;;;;;;10.53;6.73;;;-0.30;55.90;;;;;;5074697;28;20468;-86
2021/12/22 03:03:44;;;;;;;7.63;6.83;;;0.00;54.90;;;;;;5064221;28;20575;-87
2021/12/22 03:06:16;;;;;;;11.17;7.60;;;0.20;53.70;;;;;;5073345;28;20957;-87
2021/12/22 03:08:43;;;;;;;18.50;7.23;;;-0.10;52.80;;;;;;5060055;28;20838;-87
2021/12/22 03:11:10;;;;;;;12.63;7.43;;;0.00;53.20;;;;;;5089759;28;20461;-87
2021/12/22 03:13:37;;;;;;;9.50;5.77;;;-0.10;53.70;;;;;;5071238;28;20494;-87
2021/12/22 03:16:04;;;;;;;10.80;5.60;;;-0.30;53.70;;;;;;5072043;28;20979;-86
2021/12/22 03:18:33;;;;;;;9.67;7.97;;;-0.60;54.60;;;;;;5047826;28;20472;-88
2021/12/22 03:21:08;;;;;;;14.77;7.97;;;-0.40;55.00;;;;;;5090000;28;20607;-89
2021/12/22 03:23:37;;;;;;;38.17;11.87;;;-0.10;54.40;;;;;;5057456;28;20549;-89
2021/12/22 03:26:04;;;;;;;23.43;10.93;;;0.10;54.00;;;;;;5078325;28;21009;-87
2021/12/22 03:28:31;;;;;;;12.87;7.97;;;0.20;53.50;;;;;;5073974;28;20454;-87
2021/12/22 03:30:59;;;;;;;18.33;7.70;;;0.30;53.40;;;;;;5064506;28;20511;-87
2021/12/22 03:33:26;;;;;;;31.60;8.80;;;0.40;53.40;;;;;;5072272;28;20577;-87
2021/12/22 03:35:53;;;;;;;15.07;8.90;;;0.60;53.20;;;;;;5054719;28;20535;-88
2021/12/22 03:38:20;;;;;;;17.53;9.00;;;0.60;53.00;;;;;;5071241;28;20475;-87
2021/12/22 03:40:48;;;;;;;13.30;8.60;;;0.60;53.30;;;;;;5066578;28;20464;-88
2021/12/22 03:43:15;;;;;;;12.60;6.63;;;0.80;53.30;;;;;;5059907;28;20465;-88
2021/12/22 03:45:42;;;;;;;25.93;8.97;;;0.70;52.60;;;;;;5072033;28;20455;-86
2021/12/22 03:48:09;;;;;;;19.63;7.80;;;0.60;53.00;;;;;;5047482;28;20454;-89
2021/12/22 03:50:36;;;;;;;12.40;8.87;;;0.70;53.10;;;;;;5090849;28;20450;-88
2021/12/22 03:53:03;;;;;;;17.77;8.03;;;0.40;52.00;;;;;;5086316;28;20475;-87
2021/12/22 03:55:30;;;;;;;13.23;7.73;;;0.30;52.50;;;;;;5074572;28;21038;-87
2021/12/22 03:57:58;;;;;;;10.97;7.57;;;0.10;53.40;;;;;;5061320;28;20739;-87
2021/12/22 04:00:25;;;;;;;19.50;7.97;;;0.20;53.80;;;;;;5075180;28;20457;-87
2021/12/22 04:02:52;;;;;;;48.97;9.23;;;0.20;53.80;;;;;;5072970;28;20466;-87
2021/12/22 04:05:19;;;;;;;13.93;8.03;;;0.40;53.90;;;;;;5084812;28;20829;-87
2021/12/22 04:07:46;;;;;;;17.37;8.40;;;0.40;53.80;;;;;;5078274;28;20461;-88
2021/12/22 04:10:20;;;;;;;13.60;8.33;;;0.50;53.60;;;;;;5093734;28;20828;-85
2021/12/22 04:13:06;;;;;;;21.23;9.67;;;0.60;52.60;;;;;;5086862;27;20478;-87
2021/12/22 04:15:34;;;;;;;17.07;9.23;;;0.10;52.80;;;;;;5077306;28;20471;-87
2021/12/22 04:18:01;;;;;;;19.63;8.90;;;-0.10;53.00;;;;;;5061144;28;20477;-87
2021/12/22 04:20:29;;;;;;;20.50;10.70;;;-0.50;53.90;;;;;;5076161;28;20466;-87
2021/12/22 04:22:57;;;;;;;17.57;9.83;;;-0.70;55.00;;;;;;5059387;28;20472;-87
2021/12/22 04:25:24;;;;;;;11.30;7.20;;;-0.50;55.30;;;;;;5077297;28;20469;-88
2021/12/22 04:27:55;;;;;;;111.17;11.73;;;-0.50;55.00;;;;;;5074196;27;20448;-88
2021/12/22 04:30:25;;;;;;;20.13;9.47;;;-0.70;55.40;;;;;;5075499;28;20469;-87
2021/12/22 04:32:52;;;;;;;19.27;9.90;;;-0.40;55.90;;;;;;5090275;28;20478;-88
2021/12/22 04:35:19;;;;;;;15.53;7.97;;;-0.30;55.40;;;;;;5077108;28;20865;-89
2021/12/22 04:37:46;;;;;;;15.37;6.97;;;0.10;54.60;;;;;;5059472;28;20504;-89
2021/12/22 04:40:14;;;;;;;8.40;6.50;;;0.10;53.40;;;;;;5078359;28;20459;-89
2021/12/22 04:42:41;;;;;;;13.60;8.20;;;0.10;53.50;;;;;;5057817;28;20489;-86
2021/12/22 04:45:09;;;;;;;18.27;9.03;;;0.20;53.10;;;;;;5079090;28;20466;-88
2021/12/22 04:47:38;;;;;;;19.80;9.47;;;0.20;53.00;;;;;;5096024;27;20959;-89
2021/12/22 04:50:10;;;;;;;14.00;9.30;;;0.40;52.60;;;;;;5076701;28;20450;-91
2021/12/22 04:52:43;;;;;;;14.87;9.70;;;0.60;52.10;;;;;;5076214;28;20473;-90
2021/12/22 04:55:10;;;;;;;12.50;9.40;;;0.70;51.50;;;;;;5078421;28;20453;-87
2021/12/22 04:57:37;;;;;;;24.17;7.73;;;0.70;51.40;;;;;;5096817;27;20500;-88
2021/12/22 05:00:07;;;;;;;22.23;7.83;;;0.80;51.30;;;;;;5093165;27;21466;-87
2021/12/22 05:02:35;;;;;;;11.90;8.07;;;0.70;50.80;;;;;;5081494;28;20494;-88
2021/12/22 05:05:04;;;;;;;22.33;9.33;;;0.70;51.20;;;;;;5093365;28;20465;-87
2021/12/22 05:07:31;;;;;;;13.00;7.40;;;0.70;51.00;;;;;;5043436;28;20758;-91
2021/12/22 05:09:58;;;;;;;11.13;8.07;;;0.80;50.80;;;;;;5072884;28;20450;-89
2021/12/22 05:12:25;;;;;;;12.60;7.27;;;0.80;50.90;;;;;;5043724;28;20956;-85
2021/12/22 05:14:52;;;;;;;15.13;7.23;;;0.80;50.80;;;;;;5093701;28;20478;-88
2021/12/22 05:17:23;;;;;;;9.10;5.97;;;0.70;51.10;;;;;;5078304;28;21005;-88
2021/12/22 05:19:50;;;;;;;16.57;7.97;;;0.80;50.90;;;;;;5093323;28;20469;-89
2021/12/22 05:22:19;;;;;;;12.37;8.73;;;0.80;50.60;;;;;;5065212;28;20991;-88
2021/12/22 05:24:45;;;;;;;8.87;6.13;;;0.40;49.90;;;;;;5071844;28;20451;-87
2021/12/22 05:27:13;;;;;;;10.97;6.87;;;0.30;49.90;;;;;;5058272;28;20468;-90
2021/12/22 05:29:40;;;;;;;5.40;4.50;;;0.10;49.80;;;;;;5095726;28;20550;-86
2021/12/22 05:32:08;;;;;;;10.03;6.20;;;-0.30;50.50;;;;;;5060080;28;20466;-87
2021/12/22 05:34:35;;;;;;;12.03;7.53;;;-1.00;52.10;;;;;;5077144;28;20802;-89
2021/12/22 05:37:02;;;;;;;14.33;9.40;;;-1.10;53.70;;;;;;5043147;27;20451;-90
2021/12/22 05:39:30;;;;;;;16.60;8.10;;;-0.70;53.60;;;;;;5074613;28;20471;-88
2021/12/22 05:41:57;;;;;;;12.80;8.10;;;-0.30;52.90;;;;;;5079166;28;20485;-87
2021/12/22 05:44:24;;;;;;;13.57;7.57;;;-0.10;51.90;;;;;;5063538;28;21247;-88
2021/12/22 05:46:51;;;;;;;10.53;7.37;;;-0.10;51.50;;;;;;5067008;28;20457;-87
2021/12/22 05:49:19;;;;;;;23.20;11.90;;;-0.10;51.70;;;;;;5083667;28;20467;-87
2021/12/22 05:51:46;;;;;;;21.27;8.43;;;0.10;51.30;;;;;;5078800;28;20499;-87
2021/12/22 05:54:13;;;;;;;26.40;9.57;;;0.20;50.20;;;;;;5100895;27;20463;-86
2021/12/22 05:56:42;;;;;;;15.90;8.50;;;0.20;49.80;;;;;;5076039;27;20449;-86
2021/12/22 05:59:09;;;;;;;16.83;8.10;;;0.30;50.40;;;;;;5095237;28;20475;-87
2021/12/22 06:01:35;;;;;;;15.50;11.07;;;0.40;50.70;;;;;;5063179;28;20470;-87
2021/12/22 06:04:03;;;;;;;9.03;6.20;;;0.40;50.40;;;;;;5081834;28;20452;-89
2021/12/22 06:06:30;;;;;;;9.90;6.67;;;0.50;50.70;;;;;;5083066;28;20450;-88
2021/12/22 06:08:57;;;;;;;11.57;6.80;;;0.40;51.60;;;;;;5076686;28;20438;-88
2021/12/22 06:11:32;;;;;;;11.63;6.90;;;0.30;52.20;;;;;;5080592;28;20443;-88
2021/12/22 06:14:01;;;;;;;9.93;5.00;;;0.10;52.90;;;;;;5097409;28;20489;-88
2021/12/22 06:16:30;;;;;;;28.03;9.10;;;0.20;52.70;;;;;;5075860;28;20466;-87
2021/12/22 06:19:01;;;;;;;13.37;7.60;;;-0.10;52.60;;;;;;5065269;28;20470;-87
2021/12/22 06:21:29;;;;;;;19.23;10.60;;;-0.50;53.20;;;;;;5062588;28;21101;-87
2021/12/22 06:23:56;;;;;;;14.97;6.93;;;-0.80;54.80;;;;;;5095972;28;20446;-88
2021/12/22 06:26:23;;;;;;;21.87;11.17;;;-0.80;54.40;;;;;;5077055;28;20958;-87
2021/12/22 06:28:50;;;;;;;15.60;7.73;;;-0.60;54.60;;;;;;5075865;28;20946;-88
2021/12/22 06:31:19;;;;;;;15.53;8.60;;;-0.30;54.10;;;;;;5065624;28;20475;-86
2021/12/22 06:33:47;;;;;;;14.80;10.07;;;-0.10;53.70;;;;;;5071030;28;20453;-88
2021/12/22 06:36:13;;;;;;;8.23;6.23;;;-0.10;52.60;;;;;;5061216;28;20458;-86
2021/12/22 06:38:41;;;;;;;15.10;7.10;;;-1.10;53.60;;;;;;5079979;28;20474;-88
2021/12/22 06:41:08;;;;;;;19.00;8.50;;;-1.50;55.40;;;;;;5056532;28;20448;-87
2021/12/22 06:43:35;;;;;;;15.43;8.23;;;-1.30;55.50;;;;;;5079088;28;20482;-87
2021/12/22 06:46:02;;;;;;;25.47;8.53;;;-1.10;54.40;;;;;;5095303;28;20457;-87
2021/12/22 06:48:30;;;;;;;9.67;6.73;;;-0.90;53.70;;;;;;5066013;28;20475;-88
2021/12/22 06:50:57;;;;;;;13.50;8.97;;;-0.80;53.00;;;;;;5083052;28;20459;-90
2021/12/22 06:53:24;;;;;;;17.00;4.87;;;-1.00;52.50;;;;;;5091555;28;20507;-87
2021/12/22 06:55:51;;;;;;;9.80;8.30;;;-1.10;52.10;;;;;;5048651;28;20458;-87
2021/12/22 06:58:18;;;;;;;13.13;7.00;;;-1.30;52.00;;;;;;5078868;28;20478;-87
2021/12/22 07:00:45;;;;;;;10.27;6.03;;;-1.60;51.90;;;;;;5056345;28;20454;-86
2021/12/22 07:03:13;;;;;;;14.23;6.93;;;-1.80;52.80;;;;;;5062439;28;20528;-89
2021/12/22 07:05:41;;;;;;;13.40;6.33;;;-1.70;52.30;;;;;;5080814;28;21058;-87
2021/12/22 07:08:08;;;;;;;9.20;6.73;;;-1.30;52.10;;;;;;5045685;28;20467;-88
2021/12/22 07:10:35;;;;;;;11.83;6.97;;;-1.00;51.30;;;;;;5077781;28;20497;-87
2021/12/22 07:13:02;;;;;;;10.87;5.83;;;-0.80;51.10;;;;;;5080730;28;20479;-87
2021/12/22 07:15:29;;;;;;;7.70;6.70;;;-0.50;50.60;;;;;;5075060;28;20832;-85
2021/12/22 07:17:56;;;;;;;13.87;8.23;;;-0.40;49.60;;;;;;5056901;28;20457;-87
2021/12/22 07:20:23;;;;;;;9.10;5.80;;;-0.30;49.30;;;;;;5049448;28;20834;-89
2021/12/22 07:22:52;;;;;;;12.73;6.80;;;-0.20;49.10;;;;;;5043134;28;20827;-89
2021/12/22 07:25:23;;;;;;;10.50;6.57;;;-0.30;48.40;;;;;;5058156;28;20446;-88
2021/12/22 07:27:50;;;;;;;11.33;6.10;;;-0.60;48.60;;;;;;5093948;28;20478;-88
2021/12/22 07:30:17;;;;;;;12.20;8.47;;;-0.70;48.70;;;;;;5076956;28;20830;-86
2021/12/22 07:32:44;;;;;;;15.87;8.60;;;-0.90;48.80;;;;;;5061022;28;20471;-87
2021/12/22 07:35:18;;;;;;;22.07;9.70;;;-0.70;49.50;;;;;;5062068;28;20439;-89
2021/12/22 07:37:51;;;;;;;24.10;11.20;;;-0.50;49.30;;;;;;5095580;27;21133;-88
2021/12/22 07:40:20;;;;;;;15.63;8.00;;;-0.50;48.70;;;;;;5068489;27;20474;-88
2021/12/22 07:42:47;;;;;;;26.07;8.63;;;-0.40;48.50;;;;;;5076869;27;20520;-88
2021/12/22 07:45:14;;;;;;;21.37;9.10;;;-0.30;48.20;;;;;;5058809;28;20459;-85
2021/12/22 07:47:42;;;;;;;12.47;7.27;;;-0.20;48.20;;;;;;5079233;28;20501;-87
2021/12/22 07:50:09;;;;;;;17.40;9.03;;;-0.10;48.30;;;;;;5068685;28;20450;-88
2021/12/22 07:52:36;;;;;;;31.50;11.70;;;-0.10;48.20;;;;;;5074362;28;20533;-89
2021/12/22 07:55:04;;;;;;;16.63;10.63;;;-0.10;48.30;;;;;;5073067;28;20436;-90
2021/12/22 07:57:32;;;;;;;11.87;8.23;;;-0.10;48.20;;;;;;5094350;28;20446;-88
2021/12/22 07:59:59;;;;;;;16.30;9.90;;;-0.20;48.10;;;;;;5057214;28;20627;-89
2021/12/22 08:02:26;;;;;;;11.93;7.63;;;-0.10;48.30;;;;;;5078503;28;20474;-87
2021/12/22 08:04:53;;;;;;;13.90;6.70;;;-0.10;48.30;;;;;;5079509;28;20447;-89
2021/12/22 08:07:20;;;;;;;19.17;11.33;;;0.00;48.20;;;;;;5077298;28;20444;-86
2021/12/22 08:09:47;;;;;;;18.20;10.73;;;0.00;48.00;;;;;;5063853;28;20443;-89
2021/12/22 08:12:14;;;;;;;26.40;13.00;;;0.10;48.20;;;;;;5066117;28;20473;-88
2021/12/22 08:14:42;;;;;;;13.30;9.57;;;0.10;48.40;;;;;;5077720;28;20451;-87
2021/12/22 08:17:10;;;;;;;11.60;8.70;;;0.10;47.60;;;;;;5075962;27;20778;-88
2021/12/22 08:19:38;;;;;;;19.70;8.60;;;0.10;47.80;;;;;;5076294;27;20630;-88
2021/12/22 08:22:05;;;;;;;14.43;8.30;;;0.20;48.00;;;;;;5078772;28;20876;-88
2021/12/22 08:24:32;;;;;;;15.00;7.83;;;0.20;48.00;;;;;;5062308;28;20513;-88
2021/12/22 08:26:59;;;;;;;12.83;6.43;;;0.10;47.70;;;;;;5078667;28;20444;-90
2021/12/22 08:29:26;;;;;;;13.60;8.53;;;-0.10;48.20;;;;;;5094006;28;20473;-90
2021/12/22 08:31:55;;;;;;;30.60;14.50;;;0.00;48.50;;;;;;5093042;27;20913;-88
2021/12/22 08:34:27;;;;;;;37.67;18.73;;;0.10;48.30;;;;;;5076902;28;20464;-85
2021/12/22 08:39:39;;;;;;;16.53;10.90;;;0.20;48.30;;;;;;5092914;28;20667;-88
2021/12/22 08:42:07;;;;;;;15.73;9.50;;;0.20;48.20;;;;;;5062083;28;20465;-88
2021/12/22 08:44:34;;;;;;;20.70;10.40;;;0.20;48.10;;;;;;5061378;28;20457;-89
2021/12/22 08:47:03;;;;;;;11.70;6.70;;;0.20;48.10;;;;;;5077239;28;20503;-89
2021/12/22 08:49:30;;;;;;;10.80;7.30;;;0.20;48.00;;;;;;5050564;28;20443;-88
2021/12/22 08:51:57;;;;;;;10.00;7.00;;;0.30;48.10;;;;;;5076703;28;20474;-88
2021/12/22 08:54:25;;;;;;;12.40;6.97;;;0.30;48.00;;;;;;5080754;28;20937;-88
2021/12/22 08:56:52;;;;;;;6.00;5.37;;;0.30;48.00;;;;;;5080673;28;21006;-89
2021/12/22 08:59:20;;;;;;;13.63;8.80;;;0.30;48.00;;;;;;5076369;28;20466;-88
2021/12/22 09:01:48;;;;;;;11.33;7.30;;;0.30;48.00;;;;;;5063837;28;20998;-85
2021/12/22 09:04:19;;;;;;;8.50;6.93;;;0.30;48.10;;;;;;5095548;27;20470;-86
2021/12/22 09:06:46;;;;;;;14.43;6.53;;;0.40;48.20;;;;;;5057840;28;20457;-89
2021/12/22 09:09:14;;;;;;;10.83;7.93;;;0.40;48.10;;;;;;5085278;27;21008;-88
2021/12/22 09:11:41;;;;;;;10.10;6.27;;;0.40;48.10;;;;;;5048541;27;20895;-88
2021/12/22 09:14:09;;;;;;;13.50;6.10;;;0.40;48.00;;;;;;5061480;28;20466;-88
2021/12/22 09:16:37;;;;;;;13.20;7.90;;;0.30;48.20;;;;;;5084016;28;20877;-88
2021/12/22 09:19:04;;;;;;;17.60;8.43;;;0.30;48.40;;;;;;5061185;28;20462;-87
2021/12/22 09:21:33;;;;;;;11.90;7.67;;;0.30;48.50;;;;;;5050528;28;20561;-88
2021/12/22 09:24:00;;;;;;;13.93;8.70;;;0.40;48.40;;;;;;5054951;28;20494;-90
2021/12/22 09:26:28;;;;;;;11.33;6.67;;;0.40;48.30;;;;;;5065416;28;20519;-88
2021/12/22 09:28:55;;;;;;;13.27;7.77;;;0.40;48.50;;;;;;5079452;27;20451;-89
2021/12/22 09:31:23;;;;;;;14.97;7.77;;;0.40;48.70;;;;;;5090781;28;20492;-88
2021/12/22 09:33:50;;;;;;;13.60;7.80;;;0.40;48.90;;;;;;5074347;28;20443;-88
2021/12/22 09:36:18;;;;;;;14.80;8.97;;;0.40;49.00;;;;;;5073502;28;20464;-88
2021/12/22 09:38:46;;;;;;;10.93;7.70;;;0.50;49.00;;;;;;5065371;28;20462;-89
2021/12/22 09:41:14;;;;;;;11.83;7.23;;;0.50;48.80;;;;;;5077210;28;21106;-88
2021/12/22 09:43:42;;;;;;;12.27;7.90;;;0.50;49.00;;;;;;5059307;28;20505;-89
2021/12/22 09:46:13;;;;;;;7.40;6.27;;;0.50;49.10;;;;;;5091901;28;21093;-88
2021/12/22 09:48:51;;;;;;;11.57;7.83;;;0.60;49.40;;;;;;5057994;28;20451;-88
2021/12/22 09:54:10;;;;;;;11.37;8.40;;;0.60;49.10;;;;;;5095240;28;20469;-87
2021/12/22 09:56:40;;;;;;;9.80;8.60;;;0.60;49.00;;;;;;5084187;28;20915;-87
2021/12/22 09:59:07;;;;;;;22.33;9.50;;;0.60;49.10;;;;;;5075606;28;20815;-88
2021/12/22 10:01:34;;;;;;;14.57;8.47;;;0.70;49.20;;;;;;5090095;28;20490;-88
2021/12/22 10:04:02;;;;;;;15.13;8.10;;;0.60;49.30;;;;;;5060767;28;20532;-88
2021/12/22 10:06:29;;;;;;;18.40;8.77;;;0.70;49.40;;;;;;5075715;28;20497;-88
2021/12/22 10:08:58;;;;;;;16.27;9.37;;;0.70;49.40;;;;;;5074560;28;20455;-89
2021/12/22 10:11:29;;;;;;;13.77;7.83;;;0.80;49.50;;;;;;5056358;28;20454;-88
2021/12/22 10:13:56;;;;;;;14.80;9.37;;;0.80;49.50;;;;;;5060342;28;20459;-88
2021/12/22 10:16:26;;;;;;;13.57;8.93;;;0.80;49.60;;;;;;5055083;28;20469;-89
2021/12/22 10:19:05;;;;;;;14.23;8.87;;;0.80;49.60;;;;;;5075489;28;20465;-89
2021/12/22 10:21:36;;;;;;;15.10;8.93;;;0.70;50.00;;;;;;5058951;28;20459;-88
2021/12/22 10:24:06;;;;;;;18.70;9.77;;;0.70;50.30;;;;;;5076030;28;20446;-90
2021/12/22 10:26:35;;;;;;;13.80;8.60;;;0.70;50.50;;;;;;5077633;28;20557;-87
2021/12/22 10:29:05;;;;;;;15.30;9.13;;;0.80;50.70;;;;;;5073191;28;20459;-87
2021/12/22 10:31:37;;;;;;;13.97;9.60;;;0.80;50.80;;;;;;5073414;28;20451;-86
2021/12/22 10:34:07;;;;;;;10.97;7.83;;;0.90;50.80;;;;;;5079829;28;20882;-87
2021/12/22 10:36:47;;;;;;;13.30;9.77;;;0.90;50.80;;;;;;5071673;28;20455;-88
2021/12/22 10:39:20;;;;;;;17.30;9.03;;;1.00;51.50;;;;;;5096030;28;20457;-88
2021/12/22 10:41:50;;;;;;;12.63;8.43;;;1.00;51.00;;;;;;5092910;28;20842;-89
2021/12/22 10:44:17;;;;;;;14.40;9.07;;;1.00;51.30;;;;;;5075213;28;20478;-88
2021/12/22 10:46:46;;;;;;;16.70;9.57;;;1.00;51.50;;;;;;5075545;28;20445;-88
2021/12/22 10:49:14;;;;;;;27.53;9.77;;;1.00;51.50;;;;;;5092658;28;20447;-88
2021/12/22 10:51:43;;;;;;;23.50;10.67;;;1.10;51.60;;;;;;5063930;28;20498;-87
2021/12/22 10:54:12;;;;;;;14.13;8.50;;;1.10;52.20;;;;;;5074969;28;20991;-88
2021/12/22 10:56:41;;;;;;;10.90;9.77;;;1.20;52.60;;;;;;5075221;28;20463;-88
2021/12/22 10:59:11;;;;;;;29.37;11.70;;;1.30;52.50;;;;;;5098245;28;20442;-87
2021/12/22 11:01:39;;;;;;;15.07;9.80;;;1.30;52.30;;;;;;5099012;28;20483;-87
2021/12/22 11:04:15;;;;;;;19.20;10.87;;;1.40;52.50;;;;;;5079477;27;20443;-88
2021/12/22 11:06:42;;;;;;;19.27;9.30;;;1.40;52.30;;;;;;5083286;27;20446;-88
2021/12/22 11:09:13;;;;;;;18.40;9.57;;;1.50;52.30;;;;;;5049334;28;20535;-87
2021/12/22 11:11:42;;;;;;;14.90;9.40;;;1.50;52.30;;;;;;5081380;28;20545;-85
2021/12/22 11:14:14;;;;;;;10.53;6.70;;;1.50;52.30;;;;;;5068096;28;20481;-87
2021/12/22 11:16:54;;;;;;;18.17;9.03;;;1.50;52.50;;;;;;5083556;28;20485;-86
2021/12/22 11:19:22;;;;;;;22.33;10.40;;;1.60;52.70;;;;;;5083442;27;20441;-86
2021/12/22 11:22:00;;;;;;;14.37;10.53;;;1.50;52.80;;;;;;5072291;28;20469;-87
2021/12/22 11:24:28;;;;;;;18.23;11.27;;;1.60;53.40;;;;;;5079181;28;20443;-89
2021/12/22 11:26:57;;;;;;;17.17;10.83;;;1.60;53.30;;;;;;5098066;28;20495;-87
2021/12/22 11:29:26;;;;;;;14.20;9.27;;;1.60;53.40;;;;;;5068467;28;20454;-89
2021/12/22 11:31:53;;;;;;;19.60;10.23;;;1.70;53.50;;;;;;5081951;28;20458;-87
2021/12/22 11:34:22;;;;;;;19.20;11.77;;;1.80;53.70;;;;;;5067680;27;20422;-90
2021/12/22 11:36:50;;;;;;;21.30;11.90;;;1.70;53.60;;;;;;5080070;28;20452;-87
2021/12/22 11:39:19;;;;;;;24.97;11.23;;;1.70;53.80;;;;;;5066800;28;20442;-85
2021/12/22 11:41:56;;;;;;;19.87;10.47;;;1.70;54.20;;;;;;5083549;28;20485;-88
2021/12/22 11:44:26;;;;;;;23.53;10.53;;;1.70;54.40;;;;;;5099477;27;20450;-88
2021/12/22 11:46:55;;;;;;;21.03;11.77;;;1.80;54.80;;;;;;5082553;28;20470;-87
2021/12/22 11:49:23;;;;;;;18.53;12.10;;;1.90;55.00;;;;;;5053716;28;20978;-88
2021/12/22 11:51:51;;;;;;;22.37;13.80;;;2.00;54.90;;;;;;5048270;27;20465;-87
2021/12/22 11:54:25;;;;;;;22.70;10.50;;;2.00;55.10;;;;;;5100501;27;20914;-89
2021/12/22 11:56:54;;;;;;;25.87;11.33;;;2.10;55.40;;;;;;5097818;28;20829;-87
2021/12/22 11:59:35;;;;;;;22.73;11.87;;;2.10;55.60;;;;;;5096613;27;20462;-87
2021/12/22 12:02:19;;;;;;;19.10;10.97;;;2.30;55.50;;;;;;5071063;28;20544;-88
2021/12/22 12:04:48;;;;;;;18.23;11.27;;;2.30;55.80;;;;;;5079011;27;20454;-88
2021/12/22 12:07:42;;;;;;;19.47;11.23;;;2.50;55.70;;;;;;5077720;28;20924;-88
2021/12/22 12:10:40;;;;;;;18.47;12.90;;;2.50;55.40;;;;;;5080428;28;20463;-87
2021/12/22 12:13:18;;;;;;;25.70;12.43;;;2.70;55.50;;;;;;5097025;28;20516;-87
2021/12/22 12:21:58;;;;;;;21.30;11.97;;;3.00;55.10;;;;;;5075629;28;20503;-90
2021/12/22 12:24:42;;;;;;;27.07;13.70;;;3.10;55.40;;;;;;5081842;27;20456;-88
2021/12/22 12:27:33;;;;;;;14.90;11.00;;;3.20;55.20;;;;;;5079666;28;20469;-87
2021/12/22 12:30:01;;;;;;;21.70;12.50;;;3.30;55.20;;;;;;5094701;28;20465;-87
2021/12/22 12:33:05;;;;;;;19.13;11.37;;;3.50;55.10;;;;;;5065854;28;20522;-88
2021/12/22 12:35:34;;;;;;;18.77;11.60;;;3.70;55.60;;;;;;5084900;28;20446;-88
2021/12/22 12:38:05;;;;;;;22.10;13.30;;;3.90;55.20;;;;;;5081392;28;20456;-90
2021/12/22 12:41:15;;;;;;;29.87;13.73;;;4.10;55.10;;;;;;5078784;28;20505;-88
2021/12/22 12:43:53;;;;;;;24.60;13.10;;;4.40;54.60;;;;;;5080380;27;20503;-89
2021/12/22 12:46:37;;;;;;;18.03;11.93;;;4.60;54.10;;;;;;5071342;28;20443;-87
2021/12/22 12:49:36;;;;;;;26.23;12.70;;;4.80;53.70;;;;;;5100473;28;20459;-89
2021/12/22 12:52:09;;;;;;;21.10;12.60;;;5.10;53.40;;;;;;5079208;28;21038;-89
2021/12/22 12:54:40;;;;;;;18.43;11.70;;;5.30;53.00;;;;;;5099659;27;20452;-89
2021/12/22 12:57:27;;;;;;;23.97;13.67;;;5.50;52.60;;;;;;5079440;28;20495;-89
2021/12/22 13:00:06;;;;;;;23.50;12.70;;;5.70;52.40;;;;;;5082969;28;20956;-88
2021/12/22 13:02:37;;;;;;;22.83;13.63;;;5.80;51.50;;;;;;5098045;27;20525;-89
2021/12/22 13:05:11;;;;;;;21.23;12.83;;;5.80;51.20;;;;;;5060343;28;20481;-89
2021/12/22 13:07:38;;;;;;;22.13;13.33;;;5.80;51.40;;;;;;5078093;27;20455;-86
2021/12/22 13:10:12;;;;;;;22.90;13.60;;;5.80;51.40;;;;;;5101071;28;20526;-87
2021/12/22 13:13:00;;;;;;;24.07;13.30;;;5.60;51.50;;;;;;5078578;28;20530;-86